CYXP

Pangnirtung Airport

Pangnirtung, Canada
METAR CYXP 201500Z 11003KT 090V150 12SM IC SCT030 BKN210 M26/M30 A2961 RMK SC3CS3 CIG ESTD SLP033
Observed Flight Rules
Feb-20 @ 15:00 UTC (22 hours ago) Visual Flight Rules
Wind Visibility Clouds Conditions
110° at 3 knots 12 miles
  • Scattered at 3,000' AGL
  • Broken at 21,000' AGL
  • Ice crystals
Temperatures Readings
Current -26°C / -15°F
Dewpoint -30°C / -22°F
Humidity 69%
Altimeter 29.61" Hg
Pressure 1003.3 hPa
Elevation 23
METAR CYXP 201500Z 11003KT 090V150 12SM IC SCT030 BKN210 M26/M30 A2961 RMK SC3CS3 CIG ESTD SLP033
Observed Flight Rules
Feb-20 @ 15:00 UTC
(22 hours ago)
VFR
Wind Visibility
110° at 3 knots 12 miles
Clouds
  • Scattered at 3,000' AGL
  • Broken at 21,000' AGL
Conditions
  • Ice crystals
Temperature Dewpoint
-26°C / -15°F -30°C / -22°F
Humidity Altimeter Pressure
69% 29.61" Hg 1003.3 hPa